Time;durP1;ratioP1;P1;durP2;ratioP2;P2;SDS_P1;SDS_P2;PMS_P1;PMS_P2;Temp;Humidity;BMP_temperature;BMP_pressure;BME280_temperature;BME280_humidity;BME280_pressure;Samples;Min_cycle;Max_cycle;Signal;HPM_P1;HPM_P2
2022/04/07 00:01:25;;;;;;;22.90;18.40;;;;;;;8.71;66.13;96273.66;107864;1290;22322;-83
2022/04/07 00:03:53;;;;;;;20.40;17.90;;;;;;;8.61;66.22;96275.82;107828;1290;22249;-87
2022/04/07 00:06:21;;;;;;;28.30;25.60;;;;;;;8.53;66.46;96270.66;107889;1290;22476;-87
2022/04/07 00:08:49;;;;;;;36.60;32.80;;;;;;;8.49;66.59;96268.96;107709;1292;22490;-84
2022/04/07 00:11:17;;;;;;;24.70;21.70;;;;;;;8.49;66.84;96261.61;107871;1291;22403;-85
2022/04/07 00:13:45;;;;;;;20.60;18.50;;;;;;;8.53;66.90;96256.00;107876;1291;22329;-83
2022/04/07 00:16:13;;;;;;;19.20;17.20;;;;;;;8.58;66.92;96252.09;107835;1290;22371;-83
2022/04/07 00:18:41;;;;;;;20.00;17.90;;;;;;;8.67;66.85;96253.08;107842;1291;22550;-81
2022/04/07 00:21:12;;;;;;;21.70;19.50;;;;;;;8.74;66.81;96248.06;107851;1291;22401;-82
2022/04/07 00:23:40;;;;;;;20.60;18.40;;;;;;;8.74;66.70;96248.75;107863;1290;22469;-82
2022/04/07 00:26:08;;;;;;;21.00;18.90;;;;;;;8.68;66.90;96249.46;107799;1290;22465;-81
2022/04/07 00:28:36;;;;;;;27.10;24.40;;;;;;;8.63;67.07;96249.43;107803;1291;22443;-80
2022/04/07 00:31:04;;;;;;;19.10;17.10;;;;;;;8.60;67.03;96243.20;107409;1291;259084;-82
2022/04/07 00:33:32;;;;;;;18.10;16.30;;;;;;;8.60;67.24;96240.50;107850;1291;22512;-82
2022/04/07 00:36:00;;;;;;;19.40;16.30;;;;;;;8.63;67.33;96236.66;107849;1290;22412;-82
2022/04/07 00:38:28;;;;;;;22.30;20.10;;;;;;;8.65;67.09;96235.30;107832;1290;22250;-82
2022/04/07 00:40:55;;;;;;;24.00;21.50;;;;;;;8.62;66.94;96236.79;107833;1290;22305;-82
2022/04/07 00:43:31;;;;;;;27.60;24.60;;;;;;;8.56;67.06;96234.27;107545;1292;22476;-82
2022/04/07 00:46:01;;;;;;;20.10;17.90;;;;;;;8.50;67.14;96232.81;107818;1290;23012;-83
2022/04/07 00:48:30;;;;;;;18.70;16.70;;;;;;;8.45;67.16;96234.70;107820;1291;22423;-83
2022/04/07 00:50:58;;;;;;;24.20;21.30;;;;;;;8.37;67.40;96235.30;107834;1290;22440;-83
2022/04/07 00:53:26;;;;;;;19.30;17.30;;;;;;;8.29;67.50;96237.73;107848;1290;22352;-82
2022/04/07 00:55:59;;;;;;;23.80;20.90;;;;;;;8.26;67.70;96241.06;107854;1291;22266;-82
2022/04/07 00:58:29;;;;;;;20.20;17.80;;;;;;;8.27;67.85;96239.41;107836;1291;22413;-82
2022/04/07 01:00:57;;;;;;;22.00;19.20;;;;;;;8.30;67.61;96241.73;107833;1289;22294;-82
2022/04/07 01:03:26;;;;;;;28.90;25.80;;;;;;;8.27;67.89;96245.00;107841;1291;22290;-82
2022/04/07 01:05:54;;;;;;;19.00;17.20;;;;;;;8.25;68.36;96241.16;107829;1290;22518;-83
2022/04/07 01:08:22;;;;;;;17.50;15.90;;;;;;;8.28;68.37;96246.52;107838;1291;22425;-83
2022/04/07 01:10:50;;;;;;;16.10;14.40;;;;;;;8.35;68.64;96246.57;107850;1290;22392;-83
2022/04/07 01:13:19;;;;;;;16.50;14.00;;;;;;;8.50;68.83;96243.33;107591;1291;22448;-84
2022/04/07 01:15:47;;;;;;;15.40;13.80;;;;;;;8.67;68.63;96245.86;107825;1290;22216;-84
2022/04/07 01:18:14;;;;;;;23.30;17.20;;;;;;;8.80;68.25;96247.06;107845;1291;22269;-83
2022/04/07 01:20:42;;;;;;;28.30;25.50;;;;;;;8.92;68.28;96244.48;107838;1291;22442;-83
2022/04/07 01:23:10;;;;;;;20.30;18.20;;;;;;;8.98;68.06;96249.55;107838;1291;22273;-84
2022/04/07 01:25:38;;;;;;;19.10;17.30;;;;;;;9.00;67.79;96248.79;108224;1290;22309;-83
2022/04/07 01:28:06;;;;;;;18.70;16.70;;;;;;;8.96;67.80;96251.25;107859;1293;22418;-81
2022/04/07 01:30:34;;;;;;;22.80;20.30;;;;;;;8.92;68.01;96252.19;107877;1289;22194;-85
2022/04/07 01:33:02;;;;;;;24.70;20.80;;;;;;;8.88;68.08;96251.58;107974;1290;22614;-84
2022/04/07 01:35:31;;;;;;;31.00;27.90;;;;;;;8.89;68.15;96247.98;108019;1291;22340;-85
2022/04/07 01:38:00;;;;;;;24.80;22.20;;;;;;;8.94;68.35;96246.42;107916;1290;22371;-84
2022/04/07 01:40:35;;;;;;;20.70;18.60;;;;;;;9.02;68.38;96250.54;107912;1291;22192;-85
2022/04/07 01:43:07;;;;;;;22.40;20.20;;;;;;;9.09;68.19;96250.50;107929;1290;22370;-84
2022/04/07 01:45:35;;;;;;;21.80;19.50;;;;;;;9.15;67.90;96249.70;107853;1290;22588;-82
2022/04/07 01:48:04;;;;;;;22.70;20.40;;;;;;;9.23;68.06;96247.60;107864;1290;22290;-84
2022/04/07 01:50:32;;;;;;;24.00;21.70;;;;;;;9.32;68.11;96244.61;107860;1291;22274;-83
2022/04/07 01:53:01;;;;;;;26.00;23.30;;;;;;;9.41;67.90;96239.63;107870;1291;22340;-85
2022/04/07 01:55:29;;;;;;;25.90;23.30;;;;;;;9.47;68.01;96236.40;107862;1290;22292;-84
2022/04/07 01:57:58;;;;;;;25.10;22.60;;;;;;;9.53;67.75;96244.45;107877;1290;22394;-85
2022/04/07 02:00:26;;;;;;;26.10;23.60;;;;;;;9.57;67.58;96245.33;107677;1291;22402;-84
2022/04/07 02:02:55;;;;;;;27.00;24.30;;;;;;;9.58;67.70;96242.05;107883;1290;22407;-84
2022/04/07 02:05:23;;;;;;;29.50;26.50;;;;;;;9.60;67.76;96236.20;107875;1291;22487;-86
2022/04/07 02:07:51;;;;;;;23.60;21.00;;;;;;;9.60;67.77;96230.84;107913;1290;23185;-85
2022/04/07 02:10:19;;;;;;;21.50;19.20;;;;;;;9.56;67.29;96229.32;107891;1290;23242;-84
2022/04/07 02:12:48;;;;;;;26.20;20.10;;;;;;;9.42;67.13;96232.60;107916;1290;22459;-84
2022/04/07 02:15:16;;;;;;;24.80;21.40;;;;;;;9.20;67.33;96233.84;107917;1290;22274;-85
2022/04/07 02:17:44;;;;;;;22.10;19.90;;;;;;;9.01;67.52;96229.42;107884;1291;22287;-85
2022/04/07 02:20:12;;;;;;;23.10;20.70;;;;;;;8.89;67.64;96232.96;107624;1293;22497;-84
2022/04/07 02:22:40;;;;;;;26.70;24.00;;;;;;;8.80;67.64;96233.02;107885;1290;22337;-85
2022/04/07 02:25:08;;;;;;;25.90;23.30;;;;;;;8.73;68.07;96228.70;107967;1290;22340;-80
2022/04/07 02:27:38;;;;;;;25.70;23.10;;;;;;;8.75;68.41;96229.23;108321;1291;22479;-84
2022/04/07 02:30:09;;;;;;;25.50;22.80;;;;;;;8.80;68.45;96230.54;108297;1290;22256;-82
2022/04/07 02:32:37;;;;;;;26.40;23.90;;;;;;;8.85;68.64;96229.30;108189;1290;22296;-80
2022/04/07 02:35:05;;;;;;;24.70;22.20;;;;;;;8.92;68.55;96224.55;107981;1291;23269;-85
2022/04/07 02:37:33;;;;;;;24.40;21.80;;;;;;;9.01;68.32;96225.48;107987;1291;22499;-84
2022/04/07 02:40:00;;;;;;;25.30;22.80;;;;;;;9.11;68.37;96222.23;108078;1291;22281;-83
2022/04/07 02:42:28;;;;;;;24.10;21.80;;;;;;;9.20;68.18;96219.79;108167;1291;22279;-86
2022/04/07 02:44:56;;;;;;;24.90;21.80;;;;;;;9.27;68.29;96217.10;107752;1293;22940;-82
2022/04/07 02:47:35;;;;;;;24.40;21.80;;;;;;;9.32;68.09;96218.44;107885;1291;22489;-83
2022/04/07 02:50:04;;;;;;;24.40;21.90;;;;;;;9.36;68.25;96218.94;107600;1291;22249;-84
2022/04/07 02:52:32;;;;;;;26.00;23.50;;;;;;;9.37;67.97;96212.63;107895;1291;23046;-83
2022/04/07 02:55:01;;;;;;;25.40;22.70;;;;;;;9.42;68.04;96218.33;107912;1291;23207;-84
2022/04/07 02:57:31;;;;;;;26.00;23.60;;;;;;;9.45;67.94;96223.17;107919;1289;23085;-83
2022/04/07 02:59:59;;;;;;;24.10;21.60;;;;;;;9.46;67.95;96222.00;107624;1293;23101;-83
2022/04/07 03:02:27;;;;;;;27.00;24.30;;;;;;;9.48;67.98;96220.43;107588;1293;23127;-83
2022/04/07 03:04:55;;;;;;;23.60;20.80;;;;;;;9.51;67.71;96223.17;107890;1291;22358;-82
2022/04/07 03:07:23;;;;;;;24.70;22.10;;;;;;;9.56;67.80;96220.34;107905;1290;22265;-83
2022/04/07 03:09:51;;;;;;;29.00;26.10;;;;;;;9.60;67.86;96224.45;107911;1291;22470;-83
2022/04/07 03:12:19;;;;;;;31.90;28.80;;;;;;;9.61;67.99;96226.33;107577;1291;22983;-84
2022/04/07 03:14:47;;;;;;;28.00;25.40;;;;;;;9.59;67.92;96219.36;107642;1294;22454;-83
2022/04/07 03:17:15;;;;;;;27.40;24.80;;;;;;;9.57;67.70;96210.14;107628;1292;22354;-83
2022/04/07 03:19:43;;;;;;;23.00;20.60;;;;;;;9.54;67.82;96208.21;107894;1291;23131;-83
2022/04/07 03:22:12;;;;;;;24.70;22.30;;;;;;;9.46;67.41;96209.64;107881;1290;22387;-89
2022/04/07 03:24:40;;;;;;;26.40;23.90;;;;;;;9.34;67.28;96210.52;107639;1293;23072;-87
2022/04/07 03:27:08;;;;;;;37.40;34.00;;;;;;;9.23;67.58;96207.61;107903;1290;22563;-88
2022/04/07 03:29:36;;;;;;;31.40;28.30;;;;;;;9.18;67.71;96207.64;107871;1290;22296;-87
2022/04/07 03:32:04;;;;;;;27.20;24.60;;;;;;;9.15;68.06;96210.77;107615;1293;22261;-87
2022/04/07 03:34:33;;;;;;;28.00;25.00;;;;;;;9.17;67.80;96210.98;107898;1291;23120;-88
2022/04/07 03:37:06;;;;;;;25.70;23.10;;;;;;;9.18;67.81;96212.89;107886;1291;22721;-85
2022/04/07 03:39:34;;;;;;;33.20;30.00;;;;;;;9.21;67.94;96214.14;107990;1291;22334;-87
2022/04/07 03:42:02;;;;;;;32.20;29.10;;;;;;;9.22;68.06;96213.25;107980;1290;22310;-87
2022/04/07 03:44:30;;;;;;;34.10;30.50;;;;;;;9.24;68.08;96213.17;107890;1290;22459;-86
2022/04/07 03:46:58;;;;;;;32.90;29.40;;;;;;;9.24;68.07;96211.02;107875;1290;23084;-87
2022/04/07 03:49:26;;;;;;;35.20;31.70;;;;;;;9.24;68.10;96212.16;107871;1290;22388;-86
2022/04/07 03:51:54;;;;;;;33.50;29.90;;;;;;;9.21;68.06;96208.55;107890;1291;22312;-86
2022/04/07 03:54:22;;;;;;;35.50;32.20;;;;;;;9.19;67.96;96206.08;107562;1291;22429;-87
2022/04/07 03:56:50;;;;;;;36.50;32.80;;;;;;;9.14;67.96;96206.98;107897;1291;23065;-87
2022/04/07 03:59:18;;;;;;;37.30;33.80;;;;;;;9.10;68.16;96202.01;107869;1291;22308;-87
2022/04/07 04:01:46;;;;;;;34.80;31.50;;;;;;;9.11;68.11;96196.34;107871;1290;22457;-87
2022/04/07 04:04:15;;;;;;;35.60;32.10;;;;;;;9.14;68.29;96193.77;107883;1290;22373;-87
2022/04/07 04:06:43;;;;;;;36.00;32.50;;;;;;;9.17;68.25;96194.52;107886;1291;23069;-86
2022/04/07 04:09:10;;;;;;;34.40;31.10;;;;;;;9.20;68.44;96196.20;107856;1291;22256;-88
2022/04/07 04:11:38;;;;;;;35.70;32.20;;;;;;;9.21;68.27;96198.48;107893;1291;22587;-87
2022/04/07 04:14:06;;;;;;;36.50;33.10;;;;;;;9.19;68.37;96197.19;107915;1290;22321;-87
2022/04/07 04:16:34;;;;;;;39.70;36.20;;;;;;;9.16;68.40;96200.52;107592;1294;22498;-87
2022/04/07 04:19:02;;;;;;;37.60;34.00;;;;;;;9.12;68.44;96195.16;107920;1290;22343;-86
2022/04/07 04:21:30;;;;;;;37.60;34.10;;;;;;;9.13;68.57;96196.36;107880;1291;23085;-86
2022/04/07 04:23:58;;;;;;;37.50;34.00;;;;;;;9.14;68.64;96198.69;107888;1291;22363;-85
2022/04/07 04:26:26;;;;;;;65.90;59.70;;;;;;;9.18;68.71;96201.65;107883;1290;22390;-86
2022/04/07 04:28:55;;;;;;;51.60;46.90;;;;;;;9.22;68.73;96200.73;107904;1290;22349;-85
2022/04/07 04:31:24;;;;;;;36.40;33.00;;;;;;;9.25;68.92;96205.60;107901;1291;22276;-86
2022/04/07 04:33:53;;;;;;;35.20;32.10;;;;;;;9.28;69.08;96199.48;107912;1291;22440;-85
2022/04/07 04:36:21;;;;;;;42.10;37.60;;;;;;;9.30;69.12;96201.79;107900;1290;22210;-87
2022/04/07 04:38:49;;;;;;;43.10;39.30;;;;;;;9.32;69.14;96203.39;107595;1291;22553;-84
2022/04/07 04:41:17;;;;;;;37.80;34.10;;;;;;;9.34;69.31;96203.38;107581;1293;22338;-84
2022/04/07 04:43:44;;;;;;;53.40;46.40;;;;;;;9.35;69.31;96198.34;107894;1291;22454;-87
2022/04/07 04:46:12;;;;;;;47.50;43.10;;;;;;;9.39;69.31;96199.77;107881;1291;22432;-87
2022/04/07 04:48:40;;;;;;;33.30;30.20;;;;;;;9.43;69.39;96200.02;107908;1290;22365;-85
2022/04/07 04:51:08;;;;;;;26.80;24.10;;;;;;;9.46;69.38;96197.16;107895;1290;22257;-85
2022/04/07 04:53:36;;;;;;;26.70;24.40;;;;;;;9.48;69.49;96193.41;107636;1293;23344;-86
2022/04/07 04:56:06;;;;;;;28.90;26.20;;;;;;;9.49;69.69;96193.61;107616;1293;22459;-84
2022/04/07 04:58:34;;;;;;;24.40;21.60;;;;;;;9.49;69.54;96189.89;107887;1291;22685;-84
2022/04/07 05:01:03;;;;;;;20.40;18.50;;;;;;;9.49;69.78;96184.90;107587;1291;22269;-87
2022/04/07 05:03:31;;;;;;;25.80;23.40;;;;;;;9.53;69.90;96185.14;107880;1291;22259;-87
2022/04/07 05:05:59;;;;;;;20.60;18.50;;;;;;;9.58;69.91;96181.44;107467;1293;23135;-86
2022/04/07 05:08:26;;;;;;;20.20;18.30;;;;;;;9.66;69.95;96187.55;107885;1291;22740;-86
2022/04/07 05:10:54;;;;;;;21.30;19.10;;;;;;;9.67;69.90;96189.89;107894;1290;22274;-87
2022/04/07 05:13:22;;;;;;;24.50;22.10;;;;;;;9.62;69.59;96192.00;107893;1291;22185;-85
2022/04/07 05:15:50;;;;;;;25.10;22.00;;;;;;;9.58;70.08;96190.80;107891;1290;22411;-86
2022/04/07 05:18:18;;;;;;;24.30;21.80;;;;;;;9.58;70.25;96188.50;107891;1290;22464;-86
2022/04/07 05:20:46;;;;;;;30.80;27.40;;;;;;;9.59;70.23;96190.23;107865;1291;22289;-86
2022/04/07 05:23:14;;;;;;;29.20;25.60;;;;;;;9.63;70.04;96191.20;107883;1291;23218;-85
2022/04/07 05:25:42;;;;;;;27.30;21.60;;;;;;;9.68;70.15;96191.16;107896;1291;22430;-86
2022/04/07 05:28:10;;;;;;;31.10;27.50;;;;;;;9.73;70.26;96190.31;107625;1293;22888;-85
2022/04/07 05:30:41;;;;;;;24.60;21.20;;;;;;;9.76;70.37;96188.42;107615;1291;22301;-88
2022/04/07 05:33:10;;;;;;;24.70;19.80;;;;;;;9.78;70.42;96188.33;107873;1290;22353;-84
2022/04/07 05:35:38;;;;;;;23.00;20.60;;;;;;;9.79;70.40;96189.73;107914;1290;22364;-86
2022/04/07 05:38:06;;;;;;;19.70;16.60;;;;;;;9.80;70.55;96190.62;107887;1290;22457;-87
2022/04/07 05:40:34;;;;;;;25.40;21.90;;;;;;;9.82;70.37;96195.21;107897;1291;22316;-85
2022/04/07 05:43:04;;;;;;;42.90;34.30;;;;;;;9.85;70.07;96191.61;107911;1291;23062;-89
2022/04/07 05:45:34;;;;;;;34.00;28.40;;;;;;;9.85;70.06;96188.71;107895;1291;22502;-86
2022/04/07 05:48:03;;;;;;;33.30;29.70;;;;;;;9.89;70.41;96187.30;107645;1292;22961;-87
2022/04/07 05:50:30;;;;;;;39.00;35.20;;;;;;;9.92;70.61;96185.15;107896;1290;22399;-87
2022/04/07 05:52:58;;;;;;;38.50;34.40;;;;;;;9.96;70.61;96183.14;107879;1291;22611;-85
2022/04/07 05:55:26;;;;;;;44.20;39.50;;;;;;;9.98;70.55;96178.29;107899;1290;22460;-86
2022/04/07 05:57:54;;;;;;;42.50;38.20;;;;;;;10.01;70.48;96176.84;107889;1290;22341;-82
2022/04/07 06:00:22;;;;;;;42.40;38.10;;;;;;;10.05;70.46;96172.40;107890;1290;23108;-83
2022/04/07 06:02:50;;;;;;;27.20;24.30;;;;;;;10.11;70.45;96175.13;107904;1291;22311;-82
2022/04/07 06:05:19;;;;;;;28.60;25.60;;;;;;;10.18;70.63;96171.96;107877;1290;22262;-83
2022/04/07 06:07:47;;;;;;;24.50;22.00;;;;;;;10.26;70.38;96168.69;107883;1290;22270;-82
2022/04/07 06:10:15;;;;;;;17.30;15.60;;;;;;;10.39;70.78;96165.80;107640;1293;22327;-84
2022/04/07 06:12:43;;;;;;;18.50;16.50;;;;;;;10.54;70.59;96160.13;107635;1292;22438;-84
2022/04/07 06:15:12;;;;;;;19.50;16.80;;;;;;;10.67;70.64;96156.21;107897;1291;22277;-79
2022/04/07 06:17:44;;;;;;;16.20;13.30;;;;;;;10.80;70.22;96156.03;107904;1290;23097;-83
2022/04/07 06:20:13;;;;;;;19.30;11.50;;;;;;;10.93;70.17;96154.86;107526;1291;22356;-82
2022/04/07 06:22:42;;;;;;;9.70;7.60;;;;;;;11.07;69.77;96148.45;107919;1291;22714;-83
2022/04/07 06:25:11;;;;;;;11.20;8.40;;;;;;;11.19;69.48;96146.46;107916;1290;22860;-83
2022/04/07 06:27:46;;;;;;;13.70;8.80;;;;;;;11.30;69.67;96145.83;107893;1291;22427;-83
2022/04/07 06:30:19;;;;;;;10.30;7.80;;;;;;;11.44;69.23;96143.48;107928;1291;22322;-81
2022/04/07 06:32:48;;;;;;;10.00;8.20;;;;;;;11.56;68.99;96146.25;107916;1291;23062;-82
2022/04/07 06:35:16;;;;;;;11.90;9.60;;;;;;;11.64;68.32;96144.20;107893;1291;22471;-82
2022/04/07 06:37:52;;;;;;;13.30;8.70;;;;;;;11.71;68.59;96139.15;107882;1291;22456;-82
2022/04/07 06:40:24;;;;;;;10.10;7.80;;;;;;;11.80;68.20;96146.38;107894;1291;22477;-83
2022/04/07 06:42:55;;;;;;;10.20;8.40;;;;;;;11.88;68.07;96145.64;107896;1291;22257;-82
2022/04/07 06:45:26;;;;;;;12.30;11.00;;;;;;;11.96;67.35;96145.70;107518;1293;22390;-82
2022/04/07 06:47:55;;;;;;;12.10;8.50;;;;;;;12.06;67.82;96144.30;107867;1291;22457;-82
2022/04/07 06:50:25;;;;;;;10.90;6.80;;;;;;;12.14;66.81;96145.88;107900;1289;22254;-82
2022/04/07 06:52:55;;;;;;;10.30;8.20;;;;;;;12.18;65.62;96154.84;107592;1291;23056;-82
2022/04/07 06:55:24;;;;;;;13.00;7.60;;;;;;;12.20;65.25;96150.86;107623;1293;22290;-83
2022/04/07 06:57:58;;;;;;;10.00;6.00;;;;;;;12.18;64.15;96143.89;107886;1290;22389;-83
2022/04/07 07:00:32;;;;;;;10.80;7.10;;;;;;;12.21;64.17;96147.74;107885;1291;22278;-83
2022/04/07 07:03:02;;;;;;;10.80;7.90;;;;;;;12.20;63.95;96143.62;107893;1291;22348;-82
2022/04/07 07:05:32;;;;;;;11.10;8.20;;;;;;;12.17;63.75;96149.80;107914;1289;22536;-82
2022/04/07 07:08:16;;;;;;;10.00;6.70;;;;;;;12.15;63.42;96154.08;107866;1291;22832;-80
2022/04/07 07:10:46;;;;;;;6.60;5.30;;;;;;;12.15;63.89;96151.08;107651;1291;22263;-83
2022/04/07 07:13:16;;;;;;;7.00;5.90;;;;;;;12.17;62.78;96148.65;107887;1291;22466;-82
2022/04/07 07:15:52;;;;;;;12.30;7.40;;;;;;;12.23;62.95;96148.64;107872;1291;22406;-82
2022/04/07 07:18:21;;;;;;;8.60;6.30;;;;;;;12.30;62.54;96151.02;107552;1291;22432;-82
2022/04/07 07:20:49;;;;;;;8.00;5.50;;;;;;;12.36;61.87;96155.79;107874;1291;23220;-81
2022/04/07 07:23:18;;;;;;;8.50;6.60;;;;;;;12.43;61.59;96148.06;107879;1291;23048;-82
2022/04/07 07:25:47;;;;;;;9.80;8.80;;;;;;;12.52;61.21;96146.48;107865;1291;22325;-83
2022/04/07 07:28:15;;;;;;;10.50;7.60;;;;;;;12.59;61.32;96145.08;107860;1291;23510;-82
2022/04/07 07:30:43;;;;;;;8.70;6.40;;;;;;;12.64;61.10;96147.80;107868;1291;22267;-83
2022/04/07 07:33:11;;;;;;;7.00;6.10;;;;;;;12.68;61.82;96150.36;107870;1291;23105;-83
2022/04/07 07:35:42;;;;;;;9.60;7.50;;;;;;;12.73;61.65;96147.70;107865;1291;22300;-82
2022/04/07 07:38:10;;;;;;;10.20;6.90;;;;;;;12.80;61.15;96147.21;107890;1291;23086;-82
2022/04/07 07:40:38;;;;;;;11.70;6.60;;;;;;;12.87;61.48;96141.23;107879;1291;22187;-82
2022/04/07 07:43:06;;;;;;;7.90;5.90;;;;;;;12.95;61.47;96140.10;107848;1291;22484;-83
2022/04/07 07:45:35;;;;;;;11.00;6.20;;;;;;;13.05;60.76;96141.27;107860;1291;22571;-83
2022/04/07 07:48:28;;;;;;;9.70;6.00;;;;;;;13.18;60.98;96132.95;107665;1291;22262;-83
2022/04/07 07:50:57;;;;;;;7.30;5.10;;;;;;;13.28;60.35;96133.93;107817;1290;22380;-84
2022/04/07 07:53:25;;;;;;;9.10;5.90;;;;;;;13.33;59.34;96139.59;107836;1291;22397;-84
2022/04/07 07:55:54;;;;;;;9.10;5.80;;;;;;;13.36;59.54;96137.78;107830;1291;23056;-84
2022/04/07 07:58:25;;;;;;;7.90;5.60;;;;;;;13.42;59.06;96137.42;107815;1291;22274;-84
2022/04/07 08:00:54;;;;;;;8.50;5.30;;;;;;;13.49;58.89;96131.45;107527;1292;22368;-84
2022/04/07 08:03:22;;;;;;;6.50;4.90;;;;;;;13.56;58.02;96134.42;107862;1291;22627;-83
2022/04/07 08:05:50;;;;;;;6.50;5.10;;;;;;;13.64;58.48;96129.91;107642;1293;22454;-82
2022/04/07 08:08:18;;;;;;;8.10;6.60;;;;;;;13.74;57.49;96124.75;108083;1291;22484;-81
2022/04/07 08:10:46;;;;;;;8.40;5.80;;;;;;;13.81;56.62;96130.50;108184;1291;22298;-83
2022/04/07 08:13:14;;;;;;;7.00;4.70;;;;;;;13.88;56.73;96137.27;108212;1291;22490;-82
2022/04/07 08:15:42;;;;;;;6.50;4.50;;;;;;;13.94;56.62;96131.95;107947;1291;22461;-82
2022/04/07 08:18:10;;;;;;;7.40;4.80;;;;;;;14.05;57.24;96133.11;107873;1291;23273;-84
2022/04/07 08:20:38;;;;;;;7.00;5.00;;;;;;;14.17;56.33;96129.96;107890;1291;22795;-83
2022/04/07 08:23:06;;;;;;;7.20;3.60;;;;;;;14.28;56.43;96128.20;107918;1292;22521;-82
2022/04/07 08:25:34;;;;;;;5.80;4.00;;;;;;;14.34;55.43;96132.21;107901;1291;22326;-81
2022/04/07 08:28:02;;;;;;;6.10;3.00;;;;;;;14.36;53.00;96135.33;107852;1291;22433;-83
2022/04/07 08:30:34;;;;;;;5.50;3.20;;;;;;;14.37;52.21;96137.38;107816;1291;22361;-82
2022/04/07 08:33:03;;;;;;;5.20;3.40;;;;;;;14.39;52.75;96143.13;107831;1292;22342;-82
2022/04/07 08:35:31;;;;;;;4.40;3.10;;;;;;;14.38;51.75;96144.35;107534;1293;22394;-83
2022/04/07 08:37:59;;;;;;;4.40;3.30;;;;;;;14.38;51.08;96137.52;107565;1292;22308;-83
2022/04/07 08:40:28;;;;;;;4.80;2.70;;;;;;;14.37;50.91;96132.16;107836;1292;22358;-84
2022/04/07 08:42:56;;;;;;;6.30;3.20;;;;;;;14.35;50.72;96132.46;107843;1291;23627;-82
2022/04/07 08:45:25;;;;;;;4.40;2.90;;;;;;;14.30;50.92;96134.88;107848;1291;22280;-81
2022/04/07 08:47:55;;;;;;;6.70;4.30;;;;;;;14.23;51.87;96124.71;107842;1291;22272;-82
2022/04/07 08:50:23;;;;;;;6.40;3.80;;;;;;;14.19;51.53;96137.89;107846;1291;22473;-83
2022/04/07 08:52:53;;;;;;;4.60;3.20;;;;;;;14.14;51.85;96140.76;107572;1291;22352;-82
2022/04/07 08:55:20;;;;;;;7.30;3.90;;;;;;;14.07;52.33;96130.35;107567;1291;22392;-82
2022/04/07 08:57:48;;;;;;;7.90;4.70;;;;;;;14.00;51.36;96127.39;107851;1291;22612;-82
2022/04/07 09:00:16;;;;;;;12.30;5.70;;;;;;;13.94;51.98;96124.61;107832;1291;22311;-83
2022/04/07 09:02:46;;;;;;;6.70;4.30;;;;;;;13.94;52.09;96132.27;107865;1291;22402;-83
2022/04/07 09:05:24;;;;;;;6.00;3.60;;;;;;;13.94;52.42;96125.21;107838;1291;22330;-83
2022/04/07 09:07:54;;;;;;;3.50;2.90;;;;;;;13.92;50.97;96122.39;107851;1291;23087;-82
2022/04/07 09:10:25;;;;;;;7.00;4.00;;;;;;;13.90;51.79;96128.23;107853;1290;22384;-83
2022/04/07 09:12:53;;;;;;;4.90;3.20;;;;;;;13.85;51.00;96129.02;107391;1290;22467;-86
2022/04/07 09:15:22;;;;;;;5.50;3.70;;;;;;;13.78;51.10;96120.16;107778;1291;22457;-84
2022/04/07 09:17:53;;;;;;;5.30;3.50;;;;;;;13.75;51.63;96124.14;107659;1291;22619;-84
2022/04/07 09:20:22;;;;;;;4.90;3.70;;;;;;;13.72;51.46;96119.77;107877;1290;22545;-85
2022/04/07 09:22:59;;;;;;;6.70;4.70;;;;;;;13.70;52.04;96105.64;107986;1290;22362;-83
2022/04/07 09:25:27;;;;;;;9.10;5.70;;;;;;;13.77;52.35;96102.98;107822;1290;23362;-85
2022/04/07 09:28:00;;;;;;;9.40;6.10;;;;;;;13.85;52.33;96099.70;107756;1291;22410;-86
2022/04/07 09:30:36;;;;;;;10.30;8.60;;;;;;;13.87;52.09;96092.23;107796;1291;23349;-84
2022/04/07 09:33:04;;;;;;;10.00;5.30;;;;;;;13.95;52.04;96094.98;107854;1291;23050;-84
2022/04/07 09:35:32;;;;;;;8.60;4.80;;;;;;;13.98;51.95;96091.85;107833;1291;22239;-84
2022/04/07 09:38:03;;;;;;;6.50;4.30;;;;;;;14.01;52.05;96088.40;107982;1289;22516;-89
2022/04/07 09:40:31;;;;;;;7.60;6.20;;;;;;;14.01;51.62;96085.64;107936;1290;23165;-86
2022/04/07 09:42:59;;;;;;;9.40;7.60;;;;;;;14.00;51.99;96076.48;107953;1290;23159;-86
2022/04/07 09:45:27;;;;;;;5.60;4.30;;;;;;;14.05;52.38;96078.89;107929;1290;22339;-88
2022/04/07 09:47:55;;;;;;;5.70;4.10;;;;;;;14.04;51.41;96084.59;107965;1289;22413;-88
2022/04/07 09:50:24;;;;;;;6.40;4.40;;;;;;;14.00;51.87;96071.92;108008;1289;23700;-83
2022/04/07 09:53:06;;;;;;;7.30;4.00;;;;;;;13.98;51.80;96066.77;107945;1289;23025;-88
2022/04/07 09:55:41;;;;;;;5.80;4.10;;;;;;;13.91;51.50;96071.39;107919;1290;22826;-85
2022/04/07 09:58:12;;;;;;;6.10;4.50;;;;;;;13.85;52.03;96058.55;107932;1290;22643;-88
2022/04/07 10:00:41;;;;;;;5.50;3.70;;;;;;;13.90;52.47;96052.27;107965;1290;23155;-86
2022/04/07 10:03:10;;;;;;;7.70;4.00;;;;;;;14.05;52.28;96040.81;107949;1290;23138;-84
2022/04/07 10:05:39;;;;;;;5.50;4.20;;;;;;;14.15;52.32;96040.23;107948;1289;22429;-87
2022/04/07 10:08:07;;;;;;;7.40;4.40;;;;;;;14.22;52.59;96036.46;107987;1290;23258;-86
2022/04/07 10:10:36;;;;;;;6.20;4.40;;;;;;;14.33;52.49;96035.29;107964;1290;23226;-85
2022/04/07 10:13:04;;;;;;;5.70;3.70;;;;;;;14.43;51.71;96036.89;107941;1290;22511;-83
2022/04/07 10:15:35;;;;;;;5.90;4.80;;;;;;;14.45;51.36;96024.45;107839;1291;23121;-85
2022/04/07 10:18:09;;;;;;;7.40;4.20;;;;;;;14.46;51.62;96023.98;107812;1290;22453;-87
2022/04/07 10:20:40;;;;;;;6.00;3.60;;;;;;;14.44;50.85;96029.77;107785;1291;22262;-86
2022/04/07 10:23:36;;;;;;;4.70;3.60;;;;;;;14.46;51.08;96012.69;107799;1291;22447;-86
2022/04/07 10:26:06;;;;;;;4.50;3.10;;;;;;;14.54;50.78;96001.11;107812;1291;22466;-84
2022/04/07 10:28:37;;;;;;;9.10;3.80;;;;;;;14.70;51.42;95994.94;107810;1291;22375;-87
2022/04/07 10:31:14;;;;;;;4.20;3.10;;;;;;;14.89;51.46;95989.77;107814;1291;22286;-84
2022/04/07 10:33:47;;;;;;;4.90;2.90;;;;;;;15.11;50.54;95983.15;107790;1289;22366;-86
2022/04/07 10:36:23;;;;;;;6.20;3.40;;;;;;;15.24;50.73;95977.98;107818;1291;22449;-86
2022/04/07 10:38:52;;;;;;;4.00;3.20;;;;;;;15.49;50.20;95978.70;107786;1291;22521;-88
2022/04/07 10:41:35;;;;;;;5.70;3.80;;;;;;;15.55;49.01;95985.89;107812;1291;22468;-83
2022/04/07 10:44:17;;;;;;;6.90;2.70;;;;;;;15.53;47.86;95986.34;107805;1291;22472;-85
2022/04/07 10:46:46;;;;;;;2.80;2.50;;;;;;;15.50;48.17;95978.16;107742;1291;22427;-85
2022/04/07 10:49:24;;;;;;;8.40;4.70;;;;;;;15.52;48.27;95969.80;107796;1290;22304;-85
2022/04/07 10:51:57;;;;;;;4.60;2.80;;;;;;;15.63;49.40;95959.89;107798;1291;22377;-85
2022/04/07 10:54:30;;;;;;;5.10;2.90;;;;;;;15.76;48.83;95953.62;107793;1290;22353;-85
2022/04/07 10:57:01;;;;;;;6.90;2.80;;;;;;;15.79;48.58;95950.30;107798;1291;22313;-84
2022/04/07 10:59:34;;;;;;;4.40;3.00;;;;;;;15.76;48.42;95956.65;107526;1293;22988;-85
2022/04/07 11:02:13;;;;;;;6.50;3.50;;;;;;;15.77;49.21;95958.52;107808;1290;22451;-84
2022/04/07 11:05:02;;;;;;;4.90;4.40;;;;;;;15.82;48.16;95961.49;107807;1290;22729;-86
2022/04/07 11:07:38;;;;;;;4.20;2.80;;;;;;;15.82;47.66;95965.53;107655;1291;22359;-86
2022/04/07 11:10:11;;;;;;;3.70;2.50;;;;;;;15.78;47.54;95956.66;107785;1291;22428;-86
2022/04/07 11:12:43;;;;;;;;;;;;;;;15.79;48.43;95952.46;107828;1290;23244;-84
2022/04/07 11:15:28;;;;;;;5.80;3.80;;;;;;;15.87;48.37;95956.10;107962;1290;22404;-86
2022/04/07 11:18:16;;;;;;;4.60;3.00;;;;;;;15.98;47.38;95947.53;107994;1290;23209;-83
2022/04/07 11:21:09;;;;;;;5.00;3.00;;;;;;;15.89;47.52;95950.98;107976;1290;22343;-83
2022/04/07 11:23:41;;;;;;;3.50;2.80;;;;;;;15.74;47.58;95944.61;107967;1290;22509;-86
2022/04/07 11:26:12;;;;;;;5.20;3.80;;;;;;;15.60;47.77;95936.45;107810;1291;22409;-84
2022/04/07 11:29:06;;;;;;;12.20;5.30;;;;;;;15.51;48.15;95930.95;107772;1291;22262;-85
2022/04/07 11:31:43;;;;;;;5.10;3.30;;;;;;;15.46;48.23;95947.91;107972;1289;22363;-83